Time;durP1;ratioP1;P1;durP2;ratioP2;P2;SDS_P1;SDS_P2;PMS_P1;PMS_P2;Temp;Humidity;BMP_temperature;BMP_pressure;BME280_temperature;BME280_humidity;BME280_pressure;Samples;Min_cycle;Max_cycle;Signal;HPM_P1;HPM_P2
2023/01/10 00:02:04;;;;;;;6.35;3.55;;;;;;;;;;6204177;23;20020;-88
2023/01/10 00:04:36;;;;;;;5.70;3.40;;;;;;;;;;6190094;23;20050;-88
2023/01/10 00:07:02;;;;;;;5.10;3.20;;;;;;;;;;6191558;23;20009;-89
2023/01/10 00:15:38;;;;;;;7.50;3.90;;;;;;;;;;6224941;22;20365;-88
2023/01/10 00:18:05;;;;;;;5.43;3.40;;;;;;;;;;6197906;23;20031;-89
2023/01/10 00:20:31;;;;;;;12.40;6.05;;;;;;;;;;6193703;23;20606;-88
2023/01/10 00:22:57;;;;;;;7.55;3.88;;;;;;;;;;6202925;23;20012;-90
2023/01/10 00:25:24;;;;;;;7.20;3.47;;;;;;;;;;6200459;23;20015;-89
2023/01/10 00:31:05;;;;;;;4.82;2.95;;;;;;;;;;6218282;23;20015;-90
2023/01/10 00:33:53;;;;;;;6.32;3.67;;;;;;;;;;6197492;23;20415;-90
2023/01/10 00:39:26;;;;;;;6.90;3.60;;;;;;;;;;6228868;22;20027;-89
2023/01/10 00:44:18;;;;;;;4.93;3.30;;;;;;;;;;6222677;23;20047;-89
2023/01/10 00:46:56;;;;;;;6.75;3.50;;;;;;;;;;6189016;23;20019;-88
2023/01/10 00:49:22;;;;;;;7.03;3.75;;;;;;;;;;6188798;23;20113;-90
2023/01/10 00:52:07;;;;;;;7.03;3.90;;;;;;;;;;6191696;23;20021;-89
2023/01/10 01:00:54;;;;;;;8.77;5.18;;;;;;;;;;6219842;23;20070;-90
2023/01/10 01:03:22;;;;;;;6.90;3.92;;;;;;;;;;6189509;23;20062;-88
2023/01/10 01:08:45;;;;;;;5.60;3.67;;;;;;;;;;6219721;23;20477;-88
2023/01/10 01:13:40;;;;;;;6.05;3.42;;;;;;;;;;6219388;23;20016;-89
2023/01/10 01:19:07;;;;;;;5.10;2.95;;;;;;;;;;6220656;22;20015;-88
2023/01/10 01:21:33;;;;;;;4.88;2.53;;;;;;;;;;6195103;23;19988;-88
2023/01/10 01:27:03;;;;;;;6.30;3.80;;;;;;;;;;6209122;22;20653;-87
2023/01/10 01:29:46;;;;;;;7.38;3.88;;;;;;;;;;6193205;23;20028;-87
2023/01/10 01:32:12;;;;;;;7.32;3.28;;;;;;;;;;6190360;23;20091;-90
2023/01/10 01:34:38;;;;;;;5.70;3.17;;;;;;;;;;6192988;23;20013;-88
2023/01/10 01:37:19;;;;;;;6.03;3.13;;;;;;;;;;6195960;23;20462;-89
2023/01/10 01:39:45;;;;;;;7.80;3.92;;;;;;;;;;6190014;22;20066;-89
2023/01/10 01:42:25;;;;;;;7.22;3.67;;;;;;;;;;6248436;22;20079;-88
2023/01/10 01:45:10;;;;;;;7.05;3.53;;;;;;;;;;6208723;23;20062;-88
2023/01/10 01:47:54;;;;;;;4.85;3.03;;;;;;;;;;6228462;23;20022;-89
2023/01/10 01:50:29;;;;;;;5.60;3.20;;;;;;;;;;6226835;23;20004;-88
2023/01/10 01:52:57;;;;;;;5.28;3.17;;;;;;;;;;6219546;23;20008;-88
2023/01/10 01:55:37;;;;;;;5.85;3.40;;;;;;;;;;6231821;23;20004;-88
2023/01/10 01:58:08;;;;;;;5.72;3.25;;;;;;;;;;6195531;22;20079;-89
2023/01/10 02:03:42;;;;;;;5.45;2.88;;;;;;;;;;6242374;22;20050;-87
2023/01/10 02:08:49;;;;;;;4.40;2.75;;;;;;;;;;6256933;22;20028;-88
2023/01/10 02:13:57;;;;;;;4.50;2.65;;;;;;;;;;6254590;22;20024;-91
2023/01/10 02:19:04;;;;;;;7.60;3.50;;;;;;;;;;6246744;22;20031;-90
2023/01/10 02:24:36;;;;;;;5.88;3.10;;;;;;;;;;6258313;22;20074;-90
2023/01/10 02:27:21;;;;;;;6.25;3.28;;;;;;;;;;6219828;23;20004;-89
2023/01/10 02:29:50;;;;;;;5.30;2.90;;;;;;;;;;6221770;23;20004;-90
2023/01/10 02:32:41;;;;;;;5.88;2.85;;;;;;;;;;6184725;23;20026;-90
2023/01/10 02:35:28;;;;;;;6.28;3.10;;;;;;;;;;6190479;23;20083;-91
2023/01/10 02:38:32;;;;;;;5.57;3.22;;;;;;;;;;6189153;23;20039;-91
2023/01/10 02:43:50;;;;;;;4.60;2.70;;;;;;;;;;6227346;22;20031;-91
2023/01/10 02:46:41;;;;;;;4.32;2.33;;;;;;;;;;6224299;22;20003;-92
2023/01/10 02:52:29;;;;;;;4.57;2.55;;;;;;;;;;6251435;23;20011;-91
2023/01/10 02:55:05;;;;;;;4.80;2.58;;;;;;;;;;6221660;23;20008;-91
2023/01/10 02:57:50;;;;;;;4.57;2.60;;;;;;;;;;6193385;23;20470;-91
2023/01/10 03:03:31;;;;;;;4.10;2.25;;;;;;;;;;6242058;22;20020;-91
2023/01/10 03:06:17;;;;;;;3.47;2.30;;;;;;;;;;6189357;23;20080;-92
2023/01/10 03:09:06;;;;;;;5.22;2.60;;;;;;;;;;6160997;23;20071;-91
2023/01/10 03:11:45;;;;;;;3.45;2.22;;;;;;;;;;6046830;23;19997;-92
2023/01/10 03:14:31;;;;;;;3.60;2.30;;;;;;;;;;6069634;23;20007;-92
2023/01/10 03:17:17;;;;;;;5.40;2.80;;;;;;;;;;6064346;22;19998;-92
2023/01/10 03:20:05;;;;;;;4.03;2.50;;;;;;;;;;6224206;23;20099;-92
2023/01/10 03:25:26;;;;;;;5.80;2.67;;;;;;;;;;6258108;22;20008;-92
2023/01/10 03:28:17;;;;;;;4.25;2.75;;;;;;;;;;6236001;23;20012;-92
2023/01/10 03:31:05;;;;;;;5.00;2.67;;;;;;;;;;6226624;22;20412;-91
2023/01/10 03:33:38;;;;;;;5.13;2.80;;;;;;;;;;6221576;23;20036;-91
2023/01/10 03:39:07;;;;;;;4.40;2.60;;;;;;;;;;6265112;22;20008;-90
2023/01/10 03:45:02;;;;;;;3.08;2.05;;;;;;;;;;6247709;23;20142;-90
2023/01/10 03:47:48;;;;;;;4.82;2.22;;;;;;;;;;6227527;23;20000;-91
2023/01/10 03:50:36;;;;;;;4.63;2.50;;;;;;;;;;6226599;23;20000;-89
2023/01/10 03:55:46;;;;;;;3.25;2.03;;;;;;;;;;6251030;23;20023;-90
2023/01/10 03:58:27;;;;;;;3.30;1.98;;;;;;;;;;6230166;22;19996;-90
2023/01/10 04:01:03;;;;;;;2.65;1.80;;;;;;;;;;6231775;23;20014;-92
2023/01/10 04:03:32;;;;;;;3.00;1.75;;;;;;;;;;6237175;22;20028;-90
2023/01/10 04:05:58;;;;;;;4.05;2.03;;;;;;;;;;6270551;22;20012;-90
2023/01/10 04:08:24;;;;;;;3.85;1.88;;;;;;;;;;6251469;22;20012;-91
2023/01/10 04:10:53;;;;;;;3.78;1.88;;;;;;;;;;6254417;22;20000;-90
2023/01/10 04:13:19;;;;;;;3.20;2.00;;;;;;;;;;6249885;22;20098;-91
2023/01/10 04:15:51;;;;;;;4.60;1.90;;;;;;;;;;6251023;22;20141;-91
2023/01/10 04:18:20;;;;;;;3.75;1.90;;;;;;;;;;6214502;23;20012;-92
2023/01/10 04:20:52;;;;;;;4.75;2.03;;;;;;;;;;6188493;23;20126;-91
2023/01/10 04:23:27;;;;;;;3.63;2.10;;;;;;;;;;6189188;23;20009;-92
2023/01/10 04:25:56;;;;;;;3.35;2.17;;;;;;;;;;6187580;23;20010;-90
2023/01/10 04:28:46;;;;;;;3.53;2.38;;;;;;;;;;6187098;23;20013;-90
2023/01/10 04:31:43;;;;;;;3.17;2.00;;;;;;;;;;6188450;23;20015;-89
2023/01/10 04:34:12;;;;;;;3.38;2.15;;;;;;;;;;6188891;23;20028;-91
2023/01/10 04:36:38;;;;;;;3.45;2.13;;;;;;;;;;6214083;23;20020;-92
2023/01/10 04:39:18;;;;;;;3.97;2.35;;;;;;;;;;6188815;23;20019;-91
2023/01/10 04:41:50;;;;;;;4.60;2.80;;;;;;;;;;6189764;23;20005;-91
2023/01/10 04:44:22;;;;;;;4.38;2.17;;;;;;;;;;6188165;23;20009;-91
2023/01/10 04:46:51;;;;;;;10.27;5.13;;;;;;;;;;6187371;23;20004;-90
2023/01/10 04:49:51;;;;;;;4.97;2.60;;;;;;;;;;6215135;22;20019;-91
2023/01/10 04:52:24;;;;;;;4.03;1.70;;;;;;;;;;6250058;22;20082;-93
2023/01/10 04:54:51;;;;;;;5.10;1.83;;;;;;;;;;6248991;22;20082;-92
2023/01/10 04:57:32;;;;;;;4.25;2.10;;;;;;;;;;6250110;22;20030;-92
2023/01/10 05:00:04;;;;;;;3.50;1.80;;;;;;;;;;6248810;22;20038;-93
2023/01/10 05:02:46;;;;;;;3.03;1.83;;;;;;;;;;6250301;22;20008;-92
2023/01/10 05:05:19;;;;;;;5.90;3.42;;;;;;;;;;6220280;23;20012;-91
2023/01/10 05:07:54;;;;;;;3.10;2.20;;;;;;;;;;6219480;23;20015;-92
2023/01/10 05:10:20;;;;;;;4.10;2.35;;;;;;;;;;6219179;23;20126;-91
2023/01/10 05:13:21;;;;;;;5.65;2.55;;;;;;;;;;6219372;23;20040;-92
2023/01/10 05:15:47;;;;;;;4.03;2.10;;;;;;;;;;6219802;23;20000;-93
2023/01/10 05:18:18;;;;;;;3.17;2.08;;;;;;;;;;6155291;23;20046;-90
2023/01/10 05:20:44;;;;;;;4.45;1.95;;;;;;;;;;6132695;22;20005;-91
2023/01/10 05:23:13;;;;;;;3.30;1.90;;;;;;;;;;6216025;23;20028;-93
2023/01/10 05:25:40;;;;;;;4.63;1.95;;;;;;;;;;6261725;22;20023;-91
2023/01/10 05:28:12;;;;;;;4.10;2.13;;;;;;;;;;6224465;23;20012;-92
2023/01/10 05:30:38;;;;;;;4.25;2.42;;;;;;;;;;6219814;23;20011;-91
2023/01/10 05:33:07;;;;;;;3.38;2.00;;;;;;;;;;6219924;23;20310;-91
2023/01/10 05:35:38;;;;;;;3.17;2.00;;;;;;;;;;6220056;23;20024;-92
2023/01/10 05:38:13;;;;;;;4.85;2.30;;;;;;;;;;6219402;23;20070;-91
2023/01/10 05:40:43;;;;;;;5.43;2.83;;;;;;;;;;6221733;23;20007;-91
2023/01/10 05:43:23;;;;;;;4.22;2.70;;;;;;;;;;6221483;23;20066;-90
2023/01/10 05:45:50;;;;;;;4.10;2.78;;;;;;;;;;6201231;23;20011;-91
2023/01/10 05:51:00;;;;;;;4.47;3.13;;;;;;;;;;6252277;23;20087;-91
2023/01/10 05:56:06;;;;;;;5.38;3.20;;;;;;;;;;6265811;22;20031;-92
2023/01/10 05:58:32;;;;;;;6.00;3.00;;;;;;;;;;6226233;23;20078;-90
2023/01/10 06:00:58;;;;;;;5.60;3.72;;;;;;;;;;6223178;23;20012;-90
2023/01/10 06:03:34;;;;;;;5.70;4.25;;;;;;;;;;6226186;23;19992;-91
2023/01/10 06:06:15;;;;;;;5.72;4.00;;;;;;;;;;6243456;23;20107;-91
2023/01/10 06:08:57;;;;;;;6.07;4.30;;;;;;;;;;6230030;23;20016;-92
2023/01/10 06:11:30;;;;;;;6.93;3.88;;;;;;;;;;6226112;23;20624;-92
2023/01/10 06:14:17;;;;;;;7.03;4.32;;;;;;;;;;6231718;23;20010;-93
2023/01/10 06:16:48;;;;;;;8.13;5.25;;;;;;;;;;6228205;23;20083;-92
2023/01/10 06:19:14;;;;;;;7.22;4.82;;;;;;;;;;6229482;23;20004;-94
2023/01/10 06:21:59;;;;;;;10.60;5.43;;;;;;;;;;6229841;23;20023;-95
2023/01/10 06:25:17;;;;;;;7.68;5.25;;;;;;;;;;6252045;23;20008;-93
2023/01/10 06:33:20;;;;;;;6.38;5.00;;;;;;;;;;6251484;22;20028;-90
2023/01/10 06:36:13;;;;;;;8.75;6.10;;;;;;;;;;6225964;23;20039;-91
2023/01/10 06:41:40;;;;;;;8.02;5.15;;;;;;;;;;6158361;23;20005;-94
2023/01/10 06:50:35;;;;;;;7.28;5.68;;;;;;;;;;6163239;23;20036;-91
2023/01/10 06:53:05;;;;;;;8.63;6.55;;;;;;;;;;6135699;23;20006;-91
2023/01/10 06:55:34;;;;;;;9.43;6.22;;;;;;;;;;6137872;23;20040;-91
2023/01/10 06:58:08;;;;;;;10.30;6.22;;;;;;;;;;6137758;23;20465;-90
2023/01/10 07:00:42;;;;;;;13.25;9.73;;;;;;;;;;6131903;23;20005;-91
2023/01/10 07:03:09;;;;;;;10.48;7.38;;;;;;;;;;6134465;23;20009;-90
2023/01/10 07:05:38;;;;;;;9.70;5.88;;;;;;;;;;6140655;23;20053;-89
2023/01/10 07:08:33;;;;;;;8.15;5.75;;;;;;;;;;6231221;23;20000;-90
2023/01/10 07:11:30;;;;;;;25.23;12.93;;;;;;;;;;6251841;23;20068;-90
2023/01/10 07:14:08;;;;;;;111.78;54.92;;;;;;;;;;6219521;23;20004;-89
2023/01/10 07:16:40;;;;;;;51.63;29.70;;;;;;;;;;6229526;23;20105;-92
2023/01/10 07:19:12;;;;;;;32.40;19.27;;;;;;;;;;6231404;23;20019;-91
2023/01/10 07:21:39;;;;;;;10.80;8.10;;;;;;;;;;6232681;23;20004;-90
2023/01/10 07:24:22;;;;;;;9.65;8.10;;;;;;;;;;6235790;23;20022;-89
2023/01/10 07:26:48;;;;;;;9.40;7.75;;;;;;;;;;6238030;23;20014;-88
2023/01/10 07:29:15;;;;;;;10.10;6.88;;;;;;;;;;6264561;22;20034;-89
2023/01/10 07:31:42;;;;;;;8.15;6.25;;;;;;;;;;6218043;23;20036;-90
2023/01/10 07:34:17;;;;;;;9.57;6.50;;;;;;;;;;6191406;23;20015;-90
2023/01/10 07:36:43;;;;;;;9.23;6.32;;;;;;;;;;6196627;23;19984;-90
2023/01/10 07:39:16;;;;;;;9.95;6.78;;;;;;;;;;6200413;23;20031;-91
2023/01/10 07:42:05;;;;;;;9.88;6.75;;;;;;;;;;6225242;23;20008;-91
2023/01/10 07:44:34;;;;;;;9.57;6.80;;;;;;;;;;6200575;23;20004;-91
2023/01/10 07:47:03;;;;;;;9.18;6.47;;;;;;;;;;6213194;23;20016;-88
2023/01/10 07:52:37;;;;;;;12.83;6.97;;;;;;;;;;6221379;23;20032;-90
2023/01/10 07:55:12;;;;;;;8.13;5.43;;;;;;;;;;6196402;23;20099;-92
2023/01/10 07:57:38;;;;;;;9.40;6.43;;;;;;;;;;6195998;23;20111;-90
2023/01/10 08:00:04;;;;;;;8.70;6.05;;;;;;;;;;6192870;23;20028;-90
2023/01/10 08:02:31;;;;;;;9.07;5.82;;;;;;;;;;6197451;23;20433;-89
2023/01/10 08:05:03;;;;;;;6.63;5.32;;;;;;;;;;6212101;23;20004;-90
2023/01/10 08:07:42;;;;;;;6.95;4.63;;;;;;;;;;6209400;23;20016;-92
2023/01/10 08:10:11;;;;;;;6.70;4.90;;;;;;;;;;6206553;23;20008;-90
2023/01/10 08:16:08;;;;;;;6.55;4.93;;;;;;;;;;6220384;23;20044;-92
2023/01/10 08:19:01;;;;;;;7.38;4.75;;;;;;;;;;6117558;23;20010;-93
2023/01/10 08:21:43;;;;;;;8.65;5.50;;;;;;;;;;6198479;23;20069;-91
2023/01/10 08:24:15;;;;;;;7.53;5.40;;;;;;;;;;6192627;23;20009;-92
2023/01/10 08:26:58;;;;;;;7.72;4.97;;;;;;;;;;6199402;23;20024;-94
2023/01/10 08:29:33;;;;;;;10.17;7.03;;;;;;;;;;6223264;23;20076;-91
2023/01/10 08:32:05;;;;;;;7.72;5.22;;;;;;;;;;6223872;23;20735;-92
2023/01/10 08:34:37;;;;;;;8.75;6.13;;;;;;;;;;6224233;23;20385;-91
2023/01/10 08:37:06;;;;;;;11.07;6.95;;;;;;;;;;6228580;23;20015;-94
2023/01/10 08:39:38;;;;;;;9.23;6.85;;;;;;;;;;6228805;23;20008;-92
2023/01/10 08:42:04;;;;;;;9.45;5.88;;;;;;;;;;6227869;22;20004;-92
2023/01/10 08:48:02;;;;;;;6.25;5.07;;;;;;;;;;6200458;23;20390;-92
2023/01/10 08:58:49;;;;;;;8.32;5.38;;;;;;;;;;6246743;22;20035;-94
2023/01/10 09:01:18;;;;;;;7.57;5.05;;;;;;;;;;6222791;23;20004;-94
2023/01/10 09:03:47;;;;;;;7.18;5.07;;;;;;;;;;6222533;23;20000;-92
2023/01/10 09:06:19;;;;;;;9.65;5.30;;;;;;;;;;6220440;23;20538;-93
2023/01/10 09:15:19;;;;;;;6.30;4.28;;;;;;;;;;6246683;23;20440;-90
2023/01/10 09:18:23;;;;;;;7.20;4.68;;;;;;;;;;6187780;23;20028;-94
2023/01/10 09:21:36;;;;;;;9.90;4.93;;;;;;;;;;6165985;23;20040;-91
2023/01/10 09:24:06;;;;;;;8.18;4.45;;;;;;;;;;6074452;23;20328;-90
2023/01/10 09:29:49;;;;;;;6.72;4.10;;;;;;;;;;6050730;23;20027;-90
2023/01/10 09:32:15;;;;;;;10.20;8.80;;;;;;;;;;6028281;23;20010;-91
2023/01/10 09:35:07;;;;;;;8.23;6.22;;;;;;;;;;6011631;23;20008;-90
2023/01/10 09:37:36;;;;;;;7.18;4.95;;;;;;;;;;5985390;23;20004;-90
2023/01/10 09:43:33;;;;;;;8.88;4.65;;;;;;;;;;6148702;23;20083;-90
2023/01/10 09:46:28;;;;;;;6.88;5.15;;;;;;;;;;6195277;23;20055;-91
2023/01/10 09:49:06;;;;;;;7.63;4.80;;;;;;;;;;6192840;23;20028;-90
2023/01/10 09:51:44;;;;;;;8.65;4.60;;;;;;;;;;6189937;23;20004;-90
2023/01/10 09:54:12;;;;;;;7.20;4.57;;;;;;;;;;6190434;23;20508;-90
2023/01/10 09:57:06;;;;;;;6.22;4.18;;;;;;;;;;6189672;23;20410;-89
2023/01/10 09:59:47;;;;;;;5.47;3.90;;;;;;;;;;6190062;23;20007;-89
2023/01/10 10:02:19;;;;;;;6.97;4.55;;;;;;;;;;6182439;23;20331;-89
2023/01/10 10:05:13;;;;;;;7.00;4.22;;;;;;;;;;6190069;23;20009;-89
2023/01/10 10:17:04;;;;;;;9.18;5.50;;;;;;;;;;6216545;23;20012;-88
2023/01/10 10:20:04;;;;;;;7.45;4.40;;;;;;;;;;6125309;23;20010;-87
2023/01/10 10:23:04;;;;;;;;;;;;;;;;;;;;;
2023/01/10 10:29:05;;;;;;;6.97;4.45;;;;;;;;;;6215223;23;20025;-87
2023/01/10 10:34:53;;;;;;;7.57;4.57;;;;;;;;;;6216393;23;20533;-87
2023/01/10 10:37:33;;;;;;;6.50;4.53;;;;;;;;;;6189947;23;20012;-90
2023/01/10 10:40:32;;;;;;;7.45;4.40;;;;;;;;;;6189424;23;20088;-87
2023/01/10 10:43:10;;;;;;;7.22;4.50;;;;;;;;;;6188973;23;20000;-90
2023/01/10 10:45:45;;;;;;;7.22;4.28;;;;;;;;;;6190254;23;20421;-87
2023/01/10 10:48:32;;;;;;;7.72;4.57;;;;;;;;;;6189564;23;20020;-87
2023/01/10 10:51:22;;;;;;;7.47;4.68;;;;;;;;;;6191511;23;20087;-89
2023/01/10 10:53:57;;;;;;;8.05;5.15;;;;;;;;;;6191461;23;20127;-89
2023/01/10 10:59:03;;;;;;;6.68;4.40;;;;;;;;;;6247063;22;20028;-88
2023/01/10 11:01:36;;;;;;;6.60;4.70;;;;;;;;;;6221988;23;20004;-88
2023/01/10 11:04:11;;;;;;;5.75;4.00;;;;;;;;;;6224929;23;20082;-88
2023/01/10 11:06:48;;;;;;;5.90;4.30;;;;;;;;;;6235166;22;19989;-88
2023/01/10 11:09:19;;;;;;;7.03;4.40;;;;;;;;;;6222856;23;20023;-89
2023/01/10 11:11:58;;;;;;;7.65;4.22;;;;;;;;;;6257305;23;20071;-88
2023/01/10 11:15:11;;;;;;;8.55;4.55;;;;;;;;;;6193471;23;20081;-91
2023/01/10 11:21:19;;;;;;;6.70;4.80;;;;;;;;;;6075329;23;20038;-88
2023/01/10 11:24:05;;;;;;;8.48;4.78;;;;;;;;;;5969338;24;20019;-89
2023/01/10 11:26:39;;;;;;;6.20;3.95;;;;;;;;;;5968540;24;20008;-89
2023/01/10 11:29:23;;;;;;;7.70;4.55;;;;;;;;;;5965857;24;20016;-89
2023/01/10 11:32:08;;;;;;;6.80;4.07;;;;;;;;;;5996602;23;20039;-92
2023/01/10 11:34:52;;;;;;;6.80;4.13;;;;;;;;;;6033634;23;20007;-90
2023/01/10 11:40:22;;;;;;;6.03;4.20;;;;;;;;;;6239349;23;20024;-90
2023/01/10 11:43:00;;;;;;;7.55;5.15;;;;;;;;;;6213787;22;20089;-88
2023/01/10 11:45:39;;;;;;;6.32;4.53;;;;;;;;;;6290510;22;20060;-88
2023/01/10 11:48:06;;;;;;;6.03;4.47;;;;;;;;;;6241750;22;20024;-88
2023/01/10 11:51:04;;;;;;;11.15;7.50;;;;;;;;;;6259072;22;20500;-87
2023/01/10 11:54:09;;;;;;;8.52;5.93;;;;;;;;;;6252087;23;20417;-89
2023/01/10 11:59:38;;;;;;;7.05;4.28;;;;;;;;;;6252837;22;20064;-90
2023/01/10 12:04:46;;;;;;;8.43;5.28;;;;;;;;;;6251881;22;20089;-90
2023/01/10 12:07:56;;;;;;;7.80;4.95;;;;;;;;;;6256121;22;20349;-90
2023/01/10 12:10:26;;;;;;;7.88;4.65;;;;;;;;;;6247939;23;19995;-90
2023/01/10 12:13:31;;;;;;;10.80;7.15;;;;;;;;;;6259933;23;20012;-89
2023/01/10 12:16:24;;;;;;;8.95;5.55;;;;;;;;;;6133746;23;20073;-88
2023/01/10 12:19:03;;;;;;;6.72;5.10;;;;;;;;;;6254318;23;20004;-94
2023/01/10 12:21:36;;;;;;;8.23;5.20;;;;;;;;;;6255223;23;20030;-88
2023/01/10 12:24:29;;;;;;;8.30;5.38;;;;;;;;;;6254584;23;20011;-88
2023/01/10 12:27:41;;;;;;;7.80;4.65;;;;;;;;;;6252652;22;20004;-92
2023/01/10 12:30:26;;;;;;;8.18;5.93;;;;;;;;;;6141679;23;20096;-91
2023/01/10 12:35:59;;;;;;;7.85;4.80;;;;;;;;;;6251652;22;20031;-93
2023/01/10 12:47:47;;;;;;;;;;;;;;;;;;;;;
2023/01/10 12:50:26;;;;;;;6.32;4.40;;;;;;;;;;6247082;23;20107;-88
2023/01/10 12:53:17;;;;;;;7.13;4.53;;;;;;;;;;6246355;23;20020;-88
2023/01/10 12:55:53;;;;;;;6.45;3.65;;;;;;;;;;6244758;23;20011;-89
2023/01/10 13:01:41;;;;;;;6.22;3.40;;;;;;;;;;6099915;23;20002;-88
2023/01/10 13:07:30;;;;;;;5.10;3.42;;;;;;;;;;6222234;23;20004;-90
2023/01/10 13:10:08;;;;;;;8.30;3.70;;;;;;;;;;6246394;22;20012;-88
2023/01/10 13:22:10;;;;;;;5.25;2.70;;;;;;;;;;6246188;23;20087;-88
2023/01/10 13:33:11;;;;;;;7.05;2.63;;;;;;;;;;6223141;23;20568;-89
2023/01/10 13:39:03;;;;;;;5.40;3.17;;;;;;;;;;6217934;23;20017;-89
2023/01/10 13:45:12;;;;;;;12.10;5.43;;;;;;;;;;6223143;23;20480;-88
2023/01/10 13:47:42;;;;;;;7.60;3.85;;;;;;;;;;6189075;23;20517;-88
2023/01/10 13:50:32;;;;;;;7.30;3.78;;;;;;;;;;6182631;23;20015;-89
2023/01/10 13:53:11;;;;;;;6.20;3.15;;;;;;;;;;6189682;23;20016;-88
2023/01/10 13:55:52;;;;;;;7.18;3.70;;;;;;;;;;6191597;23;20003;-93
2023/01/10 14:35:06;;;;;;;5.15;2.47;;;;;;;;;;6109892;23;20065;-95
2023/01/10 14:49:34;;;;;;;6.47;2.65;;;;;;;;;;6251701;22;20016;-87
2023/01/10 14:55:21;;;;;;;5.22;2.80;;;;;;;;;;6252346;23;20092;-86
2023/01/10 14:58:48;;;;;;;5.40;2.75;;;;;;;;;;6226614;23;20008;-88
2023/01/10 15:00:56;;;;;;;6.93;2.70;;;;;;;;;;6230076;23;20015;-91
2023/01/10 15:03:32;;;;;;;5.32;2.30;;;;;;;;;;6225224;23;20000;-88
2023/01/10 15:06:41;;;;;;;7.10;2.58;;;;;;;;;;6208742;22;20064;-87
2023/01/10 15:09:14;;;;;;;6.70;2.90;;;;;;;;;;6253199;23;20016;-86
2023/01/10 15:12:16;;;;;;;7.18;2.80;;;;;;;;;;6228459;23;20000;-96
2023/01/10 15:14:45;;;;;;;5.90;2.38;;;;;;;;;;6259517;23;20012;-88
2023/01/10 15:20:54;;;;;;;6.28;3.28;;;;;;;;;;6257120;22;20086;-96
2023/01/10 15:23:27;;;;;;;8.07;3.15;;;;;;;;;;6234358;23;20001;-87
2023/01/10 15:29:25;;;;;;;5.25;2.65;;;;;;;;;;6170317;23;20036;-89
2023/01/10 15:32:24;;;;;;;6.78;3.47;;;;;;;;;;6173995;23;20005;-87
2023/01/10 15:38:03;;;;;;;7.25;3.00;;;;;;;;;;6152122;23;20047;-89
2023/01/10 15:40:48;;;;;;;7.53;2.75;;;;;;;;;;6228168;22;20035;-87
2023/01/10 15:44:08;;;;;;;8.75;2.92;;;;;;;;;;6247306;22;20046;-88
2023/01/10 15:46:36;;;;;;;5.20;2.55;;;;;;;;;;6247069;22;19999;-87
2023/01/10 15:49:30;;;;;;;7.13;2.50;;;;;;;;;;6292610;22;20014;-88
2023/01/10 15:52:28;;;;;;;3.60;2.33;;;;;;;;;;6247161;22;20008;-88
2023/01/10 15:55:22;;;;;;;5.32;2.50;;;;;;;;;;6266307;22;20004;-90
2023/01/10 15:58:00;;;;;;;8.98;2.65;;;;;;;;;;6245031;22;20031;-87
2023/01/10 16:00:26;;;;;;;6.53;2.55;;;;;;;;;;6255703;22;20014;-88
2023/01/10 16:02:55;;;;;;;6.07;2.85;;;;;;;;;;6230762;22;20003;-89
2023/01/10 16:05:22;;;;;;;6.78;2.60;;;;;;;;;;6282526;22;20004;-88
2023/01/10 16:07:49;;;;;;;5.45;2.35;;;;;;;;;;6282051;22;20039;-88
2023/01/10 16:10:15;;;;;;;4.78;2.22;;;;;;;;;;6254841;22;20451;-88
2023/01/10 16:13:27;;;;;;;6.85;2.53;;;;;;;;;;6280251;22;20006;-89
2023/01/10 16:16:11;;;;;;;4.25;2.50;;;;;;;;;;6256651;22;20000;-90
2023/01/10 16:18:43;;;;;;;9.45;2.78;;;;;;;;;;6254911;22;20010;-89
2023/01/10 16:21:18;;;;;;;6.35;3.00;;;;;;;;;;6257001;22;20059;-89
2023/01/10 16:23:45;;;;;;;5.53;2.30;;;;;;;;;;6255725;22;20091;-90
2023/01/10 16:26:15;;;;;;;5.15;2.60;;;;;;;;;;6256943;22;19984;-88
2023/01/10 16:28:50;;;;;;;9.32;2.97;;;;;;;;;;6257593;22;20014;-90
2023/01/10 16:31:32;;;;;;;8.23;3.38;;;;;;;;;;6261269;22;19996;-89
2023/01/10 16:36:47;;;;;;;5.32;2.63;;;;;;;;;;6283951;22;20038;-94
2023/01/10 16:39:18;;;;;;;5.45;2.75;;;;;;;;;;6250698;22;20105;-91
2023/01/10 16:44:36;;;;;;;4.95;2.40;;;;;;;;;;6278533;22;20069;-89
2023/01/10 16:47:08;;;;;;;6.00;2.53;;;;;;;;;;6250620;22;20134;-95
2023/01/10 16:49:37;;;;;;;7.22;3.08;;;;;;;;;;6277485;22;20062;-92
2023/01/10 16:52:06;;;;;;;6.93;2.90;;;;;;;;;;6250884;22;19999;-90
2023/01/10 16:54:37;;;;;;;14.90;4.40;;;;;;;;;;6251032;22;20061;-89
2023/01/10 16:57:07;;;;;;;7.03;3.83;;;;;;;;;;6249525;22;20003;-89
2023/01/10 16:59:34;;;;;;;6.65;3.55;;;;;;;;;;6245502;23;20027;-90
2023/01/10 17:02:14;;;;;;;7.45;3.50;;;;;;;;;;6243991;23;20008;-88
2023/01/10 17:04:46;;;;;;;7.82;4.20;;;;;;;;;;6251052;22;20462;-94
2023/01/10 17:07:12;;;;;;;14.82;7.45;;;;;;;;;;6249757;22;20025;-89
2023/01/10 17:09:38;;;;;;;13.80;7.05;;;;;;;;;;6249986;22;20023;-88
2023/01/10 17:12:10;;;;;;;8.75;3.65;;;;;;;;;;6249967;22;20007;-89
2023/01/10 17:14:39;;;;;;;5.90;3.25;;;;;;;;;;6249827;22;20014;-88
2023/01/10 17:17:09;;;;;;;7.72;3.50;;;;;;;;;;6226638;22;20137;-90
2023/01/10 17:19:37;;;;;;;7.05;3.47;;;;;;;;;;6251537;22;20000;-90
2023/01/10 17:22:04;;;;;;;7.47;3.42;;;;;;;;;;6249616;22;20030;-88
2023/01/10 17:24:33;;;;;;;9.05;3.83;;;;;;;;;;6250070;22;20082;-89
2023/01/10 17:26:59;;;;;;;8.73;4.18;;;;;;;;;;6250340;22;20015;-89
2023/01/10 17:29:29;;;;;;;10.70;4.07;;;;;;;;;;6250103;22;20011;-90
2023/01/10 17:31:58;;;;;;;5.55;2.85;;;;;;;;;;6250908;22;20003;-88
2023/01/10 17:34:24;;;;;;;5.47;3.03;;;;;;;;;;6251841;22;20019;-90
2023/01/10 17:36:50;;;;;;;6.85;2.88;;;;;;;;;;6248945;22;20011;-86
2023/01/10 17:39:19;;;;;;;7.30;3.20;;;;;;;;;;6248350;22;20054;-86
2023/01/10 17:41:54;;;;;;;4.57;2.78;;;;;;;;;;6250562;22;20065;-87
2023/01/10 17:44:23;;;;;;;7.90;3.78;;;;;;;;;;6257924;22;20007;-86
2023/01/10 17:46:50;;;;;;;7.47;2.95;;;;;;;;;;6257951;22;20071;-90
2023/01/10 17:49:16;;;;;;;6.88;2.88;;;;;;;;;;6281936;22;20008;-91
2023/01/10 17:51:42;;;;;;;5.70;2.53;;;;;;;;;;6253146;22;20004;-89
2023/01/10 17:54:26;;;;;;;5.32;2.58;;;;;;;;;;6255104;22;20544;-86
2023/01/10 17:56:58;;;;;;;6.07;3.28;;;;;;;;;;6259405;22;19999;-88
2023/01/10 18:02:33;;;;;;;5.43;2.63;;;;;;;;;;6176763;22;20014;-93
2023/01/10 18:05:05;;;;;;;5.50;3.10;;;;;;;;;;6251431;22;20539;-90
2023/01/10 18:07:31;;;;;;;5.25;2.70;;;;;;;;;;6249942;22;20004;-90
2023/01/10 18:09:57;;;;;;;7.10;2.97;;;;;;;;;;6252015;22;20010;-87
2023/01/10 18:12:30;;;;;;;7.20;2.80;;;;;;;;;;6258531;22;20429;-89
2023/01/10 18:14:59;;;;;;;4.55;2.92;;;;;;;;;;6255984;22;20018;-91
2023/01/10 18:17:28;;;;;;;5.40;3.10;;;;;;;;;;6251787;22;20004;-88
2023/01/10 18:19:54;;;;;;;5.22;2.80;;;;;;;;;;6251766;22;20027;-88
2023/01/10 18:25:05;;;;;;;5.72;2.63;;;;;;;;;;6278028;22;20027;-89
2023/01/10 18:27:31;;;;;;;5.57;3.08;;;;;;;;;;6279576;22;20436;-90
2023/01/10 18:30:00;;;;;;;5.35;2.60;;;;;;;;;;6256251;22;20066;-90
2023/01/10 18:32:26;;;;;;;4.30;2.60;;;;;;;;;;6260148;22;20429;-93
2023/01/10 18:34:53;;;;;;;5.43;2.67;;;;;;;;;;6253023;22;20087;-91
2023/01/10 18:37:20;;;;;;;5.80;2.85;;;;;;;;;;6252871;22;20003;-92
2023/01/10 18:39:49;;;;;;;5.40;2.88;;;;;;;;;;6253341;22;20031;-91
2023/01/10 18:42:15;;;;;;;6.72;3.38;;;;;;;;;;6255135;22;20067;-89
2023/01/10 18:44:41;;;;;;;5.07;2.55;;;;;;;;;;6252571;22;19996;-90
2023/01/10 18:47:07;;;;;;;6.18;3.00;;;;;;;;;;6255181;22;20008;-88
2023/01/10 18:49:34;;;;;;;6.18;3.80;;;;;;;;;;6251897;22;20011;-90
2023/01/10 18:52:00;;;;;;;5.45;3.38;;;;;;;;;;6255473;22;20007;-90
2023/01/10 18:54:26;;;;;;;5.32;3.00;;;;;;;;;;6256264;22;20004;-89
2023/01/10 18:56:54;;;;;;;7.13;2.90;;;;;;;;;;6252751;22;20057;-90
2023/01/10 18:59:21;;;;;;;6.55;2.95;;;;;;;;;;6254005;22;20042;-89
2023/01/10 19:01:47;;;;;;;5.65;3.13;;;;;;;;;;6253553;22;20111;-88
2023/01/10 19:04:13;;;;;;;5.78;3.10;;;;;;;;;;6280083;22;20368;-89
2023/01/10 19:06:39;;;;;;;6.35;3.38;;;;;;;;;;6253796;22;20004;-90
2023/01/10 19:09:06;;;;;;;5.20;2.80;;;;;;;;;;6251398;22;20103;-90
2023/01/10 19:11:32;;;;;;;4.30;2.67;;;;;;;;;;6252242;22;20004;-90
2023/01/10 19:13:58;;;;;;;6.03;3.00;;;;;;;;;;6252772;22;20011;-89
2023/01/10 19:16:31;;;;;;;7.30;3.20;;;;;;;;;;6255830;22;20010;-88
2023/01/10 19:19:13;;;;;;;5.22;3.10;;;;;;;;;;6256790;22;20482;-88
2023/01/10 19:21:40;;;;;;;7.95;3.20;;;;;;;;;;6251505;22;20031;-88
2023/01/10 19:24:08;;;;;;;4.90;2.75;;;;;;;;;;6253141;22;20057;-90
2023/01/10 19:26:38;;;;;;;4.82;2.38;;;;;;;;;;6227937;22;20034;-90
2023/01/10 19:29:07;;;;;;;4.97;2.75;;;;;;;;;;6251958;22;20019;-89
2023/01/10 19:31:35;;;;;;;9.15;4.97;;;;;;;;;;6252793;22;20010;-89
2023/01/10 19:34:01;;;;;;;9.88;5.15;;;;;;;;;;6252689;22;20026;-90
2023/01/10 19:36:33;;;;;;;6.40;2.85;;;;;;;;;;6253049;22;19996;-89
2023/01/10 19:39:00;;;;;;;6.05;3.40;;;;;;;;;;6252303;22;20031;-88
2023/01/10 19:41:27;;;;;;;4.55;2.47;;;;;;;;;;6251717;22;20004;-89
2023/01/10 19:43:57;;;;;;;6.53;3.58;;;;;;;;;;6253866;22;20087;-89
2023/01/10 19:46:26;;;;;;;6.45;3.15;;;;;;;;;;6257403;22;19996;-88
2023/01/10 19:48:54;;;;;;;4.93;2.55;;;;;;;;;;6254289;22;20017;-90
2023/01/10 19:51:36;;;;;;;5.45;2.85;;;;;;;;;;6254851;22;20429;-93
2023/01/10 19:54:08;;;;;;;6.00;2.47;;;;;;;;;;6255889;22;20008;-90
2023/01/10 19:56:35;;;;;;;5.35;2.67;;;;;;;;;;6263712;22;20038;-88
2023/01/10 19:59:01;;;;;;;6.60;2.55;;;;;;;;;;6259147;23;20023;-90